• Join FlightAware (Why Join?)
  • Login
  • US Flag 
10:39AM EDT


 

Airport Tracker/Info


-or-


 

Live Flight TrackerFlight Track Log ✈ EJA102 ✈ 26-Jun-2013 ✈ KIAD - KHPN

Flight Track Log - Related Links

Times and Time Zones

All times are in EDT time to prevent confusion due to time zone crossing. See the EJA102 flight status page for this flight to view local times or setup timezone preferences in your user account.

Time Position Orientation Groundspeed Altitude Reporting Facility
EDT Latitude Longitude Course Direction KTS MPH feet Rate Location/Type
11:39AM 38.9833 -77.5000 90° East 212 244 3,400  Level Potomac TRACON
11:40AM 39.0500 -77.5000 360° North 268 308 5,800 1,860 Climbing Potomac TRACON
11:41AM 39.1000 -77.4500 38° Northeast 298 343 7,000 1,020 Climbing Potomac TRACON
11:43AM 39.1717 -77.3319 52° Northeast 307 353 8,400 1,680 Climbing Washington Center
11:44AM 39.2339 -77.2208 54° Northeast 307 353 11,400 2,460 Climbing Washington Center
11:45AM 39.3167 -76.8571 90° East  Level FlightAware Approximate
11:45AM 39.2872 -77.1253 54° Northeast 319 367 13,400  Level Washington Center
11:46AM 39.3322 -77.0136 62° Northeast 329 379 15,200 1,680 Climbing Washington Center
11:47AM 39.3172 -76.8767 98° East 335 386 16,900 1,680 Climbing Washington Center
11:48AM 39.2997 -76.7447 100° East 356 410 18,700 1,740 Climbing Washington Center
11:49AM 39.2822 -76.6078 99° East 372 428 20,500 1,140 Climbing Washington Center
11:50AM 39.2644 -76.4656 99° East 383 441 21,000 240 Climbing Washington Center
11:51AM 39.2425 -76.3125 100° East 402 463 21,000  Level Washington Center
11:52AM 39.2206 -76.1517 100° East 436 502 21,000  Level Washington Center
11:53AM 39.2086 -75.9908 95° East 452 520 21,000  Level Washington Center
11:54AM 39.2444 -75.8356 73° East 445 512 21,000  Level Washington Center
11:55AM 39.3156 -75.7178 52° Northeast 445 512 21,000  Level Washington Center
11:56AM 39.4011 -75.5781 52° Northeast 445 512 21,000  Level Washington Center
11:57AM 39.4675 -75.4625 53° Northeast 451 519 21,000  Level Washington Center
11:59AM 39.6281 -75.1967 52° Northeast 476 548 21,000  Level New York Center
12:00PM 39.6875 -75.0547 61° Northeast 460 529 21,000  Level New York Center
12:01PM 39.7247 -74.8925 73° East 455 524 21,000  Level New York Center
12:02PM 39.7811 -74.7661 60° Northeast 449 517 21,000  Level New York Center
12:03PM 39.8511 -74.6106 60° Northeast 449 517 21,000  Level New York Center
12:04PM 39.9161 -74.4625 60° Northeast 455 524 21,000  Level New York Center
12:05PM 39.9808 -74.3250 58° Northeast 455 524 21,000  Level New York Center
12:06PM 40.0411 -74.1953 59° Northeast 455 524 21,000  Level New York Center
12:08PM 40.1781 -73.8875 60° Northeast 476 548 21,000  Level Boston Center
12:09PM 40.2400 -73.7450 60° Northeast 461 531 21,000 -900 Level Boston Center
12:10PM 40.3022 -73.5992 61° Northeast 461 531 19,300 -2,040 Descending Boston Center
12:11PM 40.3844 -73.4861 46° Northeast 434 499 17,000 -1,200 Descending Boston Center
12:12PM 40.4853 -73.4197 27° Northeast 405 466 16,900 -60 Descending Boston Center
12:13PM 40.5917 -73.3803 16° North 388 447 16,900 60 Level Boston Center
12:13PM 40.6500 -73.3500 21° North 402 463 17,000 -900 Climbing New York TRACON
12:14PM 40.7500 -73.3167 14° North 414 476 15,600 -1,320 Descending New York TRACON
12:15PM 40.8333 -73.2333 37° Northeast 341 392 14,400 -1,500 Descending New York TRACON
12:16PM 40.8833 -73.1167 60° Northeast 342 394 12,600 -1,800 Descending New York TRACON
12:17PM 40.9333 -73.0167 56° Northeast 336 387 10,800 -2,100 Descending New York TRACON
12:18PM 41.0167 -73.0167 360° North 288 331 8,400 -2,340 Descending New York TRACON
12:19PM 41.0667 -73.0333 346° North 268 308 6,400 -1,680 Descending New York TRACON
12:20PM 41.1000 -73.1167 298° West 240 276 5,100 -960 Descending New York TRACON
12:21PM 41.1167 -73.2167 283° West 242 278 4,400 -900 Descending New York TRACON
12:22PM 41.1167 -73.2833 270° West 241 277 3,400 -660 Descending New York TRACON
12:23PM 41.0833 -73.3667 242° Southwest 233 268 3,100 -420 Descending New York TRACON
12:24PM 41.0500 -73.4333 236° Southwest 213 245 2,600 -600 Descending New York TRACON